Terminal Aerodrome Forecast
Issued by NWS

Home | Current Version | Previous Version | Graphics & Text | Print | Product List | Glossary On
Versions: 1 2 3 4 5 6 7 8 9 10 11 12 13 14 15 16 17 18 19
000
FTUS43 KGRB 201120
TAFAUW
TAF
KAUW 201120Z 2012/2112 17005KT P6SM SCT010 SCT090
      TEMPO 2012/2014 4SM BR
     FM201400 18007KT P6SM SCT040 BKN090
      TEMPO 2014/2018 -SHRA BKN040
     FM201800 19011G18KT P6SM SCT040 SCT090
     FM210200 18006KT P6SM SCT200
     FM210600 19006KT P6SM BKN100=

USA.gov is the U.S. government's official web portal to all federal, state and local government web resources and services.